Time;durP1;ratioP1;P1;durP2;ratioP2;P2;SDS_P1;SDS_P2;PMS_P1;PMS_P2;Temp;Humidity;BMP_temperature;BMP_pressure;BME280_temperature;BME280_humidity;BME280_pressure;Samples;Min_cycle;Max_cycle;Signal;HPM_P1;HPM_P2
2022/09/07 00:01:17;;;;;;;31.73;28.55;;;16.40;99.90;;;-141.84;87.61;19797.59;5092720;28;20389;-67
2022/09/07 00:03:45;;;;;;;31.75;28.73;;;16.40;99.90;;;-141.84;87.76;19785.38;5092175;28;20195;-67
2022/09/07 00:06:14;;;;;;;34.42;30.83;;;16.40;99.90;;;-141.84;87.27;19828.06;5092969;28;20202;-66
2022/09/07 00:08:44;;;;;;;33.42;29.85;;;16.50;99.90;;;-141.84;87.25;19787.41;5092342;28;20234;-67
2022/09/07 00:11:15;;;;;;;34.28;30.80;;;16.40;99.90;;;-141.84;87.28;19821.97;5091309;28;20219;-66
2022/09/07 00:13:46;;;;;;;33.88;30.52;;;16.40;99.90;;;-141.84;87.12;19815.88;5091589;28;20309;-65
2022/09/07 00:16:18;;;;;;;33.80;30.27;;;16.40;99.90;;;-141.84;87.45;19799.63;5092321;28;20288;-66
2022/09/07 00:18:47;;;;;;;33.78;30.40;;;16.40;99.90;;;-141.84;87.02;19758.97;5092354;28;20627;-66
2022/09/07 00:21:17;;;;;;;32.78;29.52;;;16.40;99.90;;;-141.84;87.16;19748.81;5088667;28;20201;-66
2022/09/07 00:23:49;;;;;;;32.67;29.42;;;16.40;99.90;;;-141.84;87.58;19765.06;5071617;28;20652;-67
2022/09/07 00:26:20;;;;;;;32.85;29.45;;;16.30;99.90;;;-141.84;87.58;19787.41;5072035;28;20596;-67
2022/09/07 00:28:49;;;;;;;35.42;31.92;;;16.30;99.90;;;-141.84;87.40;19716.28;5071446;28;20312;-67
2022/09/07 00:31:20;;;;;;;31.05;27.95;;;16.30;99.90;;;-141.84;87.71;19691.91;5071921;28;20240;-66
2022/09/07 00:33:51;;;;;;;34.83;31.23;;;16.30;99.90;;;-141.84;87.60;19700.03;5071692;28;20186;-66
2022/09/07 00:36:22;;;;;;;33.35;30.05;;;16.30;99.90;;;-141.84;87.60;19698.00;5072306;28;20207;-66
2022/09/07 00:38:52;;;;;;;33.47;30.08;;;16.30;99.90;;;-141.84;87.99;19689.88;5079424;28;20219;-67
2022/09/07 00:41:22;;;;;;;32.08;28.98;;;16.20;99.90;;;-141.84;88.37;19706.13;5091786;28;20231;-66
2022/09/07 00:43:53;;;;;;;32.83;29.63;;;16.20;99.90;;;-141.84;87.94;19659.38;5091226;28;20273;-65
2022/09/07 00:46:25;;;;;;;32.97;29.58;;;16.20;99.90;;;-141.84;88.06;19708.16;5091857;28;20300;-66
2022/09/07 00:49:00;;;;;;;33.65;30.38;;;16.20;99.90;;;-141.84;87.71;19695.97;5091668;28;20184;-66
2022/09/07 00:51:37;;;;;;;32.08;29.00;;;16.20;99.90;;;-141.84;87.95;19661.41;5092212;28;20631;-66
2022/09/07 00:54:12;;;;;;;33.17;29.88;;;16.20;99.90;;;-141.84;88.26;19663.44;5091898;28;20250;-66
2022/09/07 00:56:44;;;;;;;34.40;30.85;;;16.10;99.90;;;-141.84;87.60;19649.22;5091386;28;20257;-66
2022/09/07 00:59:17;;;;;;;32.28;28.92;;;16.10;99.90;;;-141.84;87.75;19661.41;5091319;28;20715;-67
2022/09/07 01:01:46;;;;;;;32.75;29.42;;;16.20;99.90;;;-141.84;87.69;19683.78;5091690;28;20302;-66
2022/09/07 01:04:16;;;;;;;33.03;29.58;;;16.20;99.90;;;-141.84;87.88;19661.41;5091465;28;20236;-66
2022/09/07 01:06:44;;;;;;;33.00;29.60;;;16.10;99.90;;;-141.84;88.15;19626.88;5091670;28;20204;-66
2022/09/07 01:09:19;;;;;;;31.75;28.55;;;16.10;99.90;;;-141.84;88.27;19620.78;5092738;28;20294;-66
2022/09/07 01:11:49;;;;;;;33.97;30.50;;;16.10;99.90;;;-141.84;87.88;19598.41;5091675;28;20687;-67
2022/09/07 01:14:26;;;;;;;33.00;29.63;;;16.10;99.90;;;-141.84;87.97;19632.97;5091245;28;20239;-67
2022/09/07 01:17:08;;;;;;;31.48;28.23;;;16.10;99.90;;;-141.84;88.09;19598.41;5091469;28;20234;-66
2022/09/07 01:20:48;;;;;;;31.33;28.05;;;16.00;99.90;;;-141.84;88.76;19635.00;5091400;28;20299;-65
2022/09/07 01:24:23;;;;;;;31.02;27.83;;;16.00;99.90;;;-141.84;88.77;19569.97;5090843;28;20219;-67
2022/09/07 01:27:54;;;;;;;31.92;28.60;;;15.90;99.90;;;-141.84;89.10;19594.34;5089494;28;20227;-64
2022/09/07 01:30:24;;;;;;;32.85;29.38;;;15.90;99.90;;;-141.84;88.66;19602.47;5071393;28;20425;-66
2022/09/07 01:33:30;;;;;;;31.42;28.13;;;15.90;99.90;;;-141.84;88.71;19576.06;5071020;28;20605;-67
2022/09/07 01:36:15;;;;;;;32.97;29.67;;;15.90;99.90;;;-141.84;88.79;19565.91;5086443;28;20227;-66
2022/09/07 01:38:49;;;;;;;32.78;29.38;;;15.90;99.90;;;-141.84;88.73;19569.97;5090898;28;20766;-66
2022/09/07 01:41:29;;;;;;;32.63;29.17;;;15.90;99.90;;;-141.84;88.31;19565.91;5090938;28;20753;-66
2022/09/07 01:44:07;;;;;;;32.25;28.90;;;15.90;99.90;;;-141.84;88.53;19517.13;5090691;28;20251;-67
2022/09/07 01:46:45;;;;;;;31.92;28.63;;;15.90;99.90;;;-141.84;88.61;19561.84;5091204;28;20255;-66
2022/09/07 01:49:23;;;;;;;32.85;29.33;;;15.90;99.90;;;-141.84;88.11;19531.34;5090651;28;20216;-67
2022/09/07 01:52:00;;;;;;;31.77;28.60;;;15.90;99.90;;;-141.84;88.04;19563.88;5091296;28;20611;-66
2022/09/07 01:54:37;;;;;;;32.03;28.77;;;15.90;99.90;;;-141.84;88.29;19557.78;5091573;28;20190;-66
2022/09/07 01:57:12;;;;;;;31.30;28.13;;;15.90;99.90;;;-141.84;88.17;19523.22;5090883;28;20215;-66
2022/09/07 01:59:49;;;;;;;33.42;29.92;;;15.90;99.90;;;-141.84;88.27;19563.88;5090531;28;20231;-66
2022/09/07 02:02:23;;;;;;;32.78;29.55;;;15.90;99.90;;;-141.84;87.92;19563.88;5090865;28;20234;-66
2022/09/07 02:05:00;;;;;;;30.88;27.73;;;16.00;99.90;;;-141.84;87.58;19541.50;5090724;28;20225;-66
2022/09/07 02:07:36;;;;;;;31.05;27.75;;;16.00;99.90;;;-141.84;87.64;19531.34;5090561;28;20665;-67
2022/09/07 02:10:12;;;;;;;31.98;28.67;;;16.00;99.90;;;-141.84;87.84;19578.09;5090836;28;20323;-67
2022/09/07 02:12:47;;;;;;;30.55;27.52;;;15.90;99.90;;;-141.84;87.77;19539.47;5090252;28;20185;-66
2022/09/07 02:15:27;;;;;;;30.50;27.50;;;15.90;99.90;;;-141.84;87.82;19551.69;5091193;28;20192;-65
2022/09/07 02:18:04;;;;;;;32.00;28.80;;;15.90;99.90;;;-141.84;88.21;19517.13;5070581;28;20255;-65
2022/09/07 02:20:37;;;;;;;31.42;28.13;;;16.00;99.90;;;-141.84;88.17;19506.97;5070360;28;20295;-66
2022/09/07 02:23:17;;;;;;;30.85;27.77;;;15.90;99.90;;;-141.84;87.92;19561.84;5070388;28;20282;-66
2022/09/07 02:25:54;;;;;;;31.25;28.13;;;15.90;99.90;;;-141.84;87.60;19541.50;5070086;28;20747;-66
2022/09/07 02:28:28;;;;;;;33.10;29.60;;;15.90;99.90;;;-141.84;87.52;19515.09;5070140;28;20657;-66
2022/09/07 02:30:58;;;;;;;31.48;28.30;;;15.90;99.90;;;-141.84;87.69;19519.16;5074848;28;20214;-67
2022/09/07 02:33:28;;;;;;;32.10;29.00;;;15.90;99.90;;;-141.84;87.55;19478.50;5091807;28;20276;-66
2022/09/07 02:35:57;;;;;;;32.45;29.23;;;15.90;99.90;;;-141.84;87.49;19511.03;5093912;28;20314;-65
2022/09/07 02:38:26;;;;;;;32.25;29.10;;;15.90;99.90;;;-141.84;87.28;19541.50;5094249;28;20662;-66
2022/09/07 02:40:57;;;;;;;31.05;27.95;;;15.90;99.90;;;-141.84;87.60;19452.09;5093950;28;20648;-66
2022/09/07 02:43:27;;;;;;;31.27;27.98;;;15.90;99.90;;;-141.84;87.35;19488.69;5093916;28;20362;-65
2022/09/07 02:46:22;;;;;;;31.63;28.52;;;16.00;99.90;;;-141.84;86.99;19468.34;5094420;28;20243;-65
2022/09/07 02:49:05;;;;;;;29.90;26.83;;;16.00;99.90;;;-141.84;87.08;19492.75;5094063;28;20230;-64
2022/09/07 02:51:45;;;;;;;30.95;27.85;;;16.10;99.90;;;-141.84;86.73;19496.81;5094388;28;20185;-66
2022/09/07 02:54:35;;;;;;;30.60;27.45;;;16.10;99.90;;;-141.84;86.71;19496.81;5094288;28;20223;-66
2022/09/07 02:57:17;;;;;;;31.40;28.17;;;16.10;99.90;;;-141.84;86.43;19523.22;5093784;28;20231;-66
2022/09/07 03:00:01;;;;;;;29.85;26.63;;;16.20;99.90;;;-141.84;85.58;19521.19;5093364;28;20402;-66
2022/09/07 03:02:43;;;;;;;29.02;26.13;;;16.30;99.90;;;-141.84;85.04;19561.84;5093815;28;20219;-65
2022/09/07 03:05:20;;;;;;;31.15;27.88;;;16.30;99.90;;;-141.84;84.37;19541.50;5093613;28;20231;-65
2022/09/07 03:07:58;;;;;;;31.88;28.67;;;16.40;99.90;;;-141.84;84.00;19543.53;5093744;28;20310;-66
2022/09/07 03:10:28;;;;;;;29.65;26.73;;;16.40;99.90;;;-141.84;83.84;19533.38;5093209;28;20736;-65
2022/09/07 03:12:56;;;;;;;30.38;27.27;;;16.40;99.90;;;-141.84;83.66;19572.00;5093139;28;20311;-66
2022/09/07 03:15:27;;;;;;;29.73;26.70;;;16.50;99.90;;;-141.84;83.74;19525.25;5093899;28;20227;-65
2022/09/07 03:17:57;;;;;;;27.75;25.08;;;16.50;99.90;;;-141.84;83.92;19537.44;5093210;28;20235;-66
2022/09/07 03:20:25;;;;;;;30.77;27.77;;;16.50;99.90;;;-141.84;83.33;19557.78;5093239;28;20314;-64
2022/09/07 03:22:53;;;;;;;30.38;27.42;;;16.50;99.90;;;-141.84;83.06;19541.50;5092774;28;20602;-66
2022/09/07 03:25:22;;;;;;;31.08;28.13;;;16.50;99.90;;;-141.84;81.77;19598.41;5093161;28;20250;-66
2022/09/07 03:27:51;;;;;;;29.30;26.40;;;16.60;99.90;;;-141.84;81.40;19616.72;5092400;28;20294;-65
2022/09/07 03:30:19;;;;;;;29.75;26.80;;;16.60;99.90;;;-141.84;81.68;19572.00;5093673;28;20282;-66
2022/09/07 03:32:47;;;;;;;30.45;27.33;;;16.60;99.90;;;-141.84;82.07;19569.97;5093272;28;20307;-65
2022/09/07 03:35:18;;;;;;;30.73;27.63;;;16.60;99.90;;;-141.84;82.19;19563.88;5092955;28;20251;-65
2022/09/07 03:37:46;;;;;;;29.65;26.73;;;16.50;99.90;;;-141.84;82.27;19561.84;5093236;28;20235;-66
2022/09/07 03:40:16;;;;;;;28.33;25.50;;;16.50;99.90;;;-141.84;82.00;19539.47;5092649;28;20617;-65
2022/09/07 03:42:48;;;;;;;28.88;26.08;;;16.50;99.90;;;-141.84;82.44;19569.97;5092969;28;20204;-66
2022/09/07 03:45:17;;;;;;;29.85;26.85;;;16.50;99.90;;;-141.84;82.11;19517.13;5093489;28;20192;-65
2022/09/07 03:47:45;;;;;;;29.73;26.83;;;16.50;99.90;;;-141.84;82.07;19553.72;5092682;28;20224;-67
2022/09/07 03:50:13;;;;;;;27.98;25.30;;;16.50;99.90;;;-141.84;82.08;19545.56;5092690;28;20668;-66
2022/09/07 03:52:43;;;;;;;29.20;26.23;;;16.50;99.90;;;-141.84;82.05;19561.84;5092837;28;20334;-65
2022/09/07 03:55:11;;;;;;;29.38;26.52;;;16.50;99.90;;;-141.84;81.59;19555.75;5092635;28;20222;-65
2022/09/07 03:57:39;;;;;;;29.02;26.05;;;16.50;99.90;;;-141.84;82.07;19549.63;5092129;28;20212;-66
2022/09/07 04:00:09;;;;;;;28.83;26.10;;;16.50;99.90;;;-141.84;82.32;19525.25;5093280;28;20196;-65
2022/09/07 04:02:37;;;;;;;29.17;26.30;;;16.50;99.90;;;-141.84;82.43;19500.88;5092490;28;20771;-67
2022/09/07 04:05:06;;;;;;;28.30;25.40;;;16.50;99.90;;;-141.84;82.05;19551.69;5092434;28;20234;-66
2022/09/07 04:07:35;;;;;;;29.52;26.67;;;16.50;99.90;;;-141.84;81.85;19569.97;5092402;28;20302;-65
2022/09/07 04:10:05;;;;;;;29.17;26.35;;;16.50;99.90;;;-141.84;81.66;19547.59;5092349;28;20220;-66
2022/09/07 04:12:33;;;;;;;28.05;25.35;;;16.50;99.90;;;-141.84;81.50;19567.94;5092781;28;20223;-66
2022/09/07 04:15:01;;;;;;;28.35;25.45;;;16.60;99.90;;;-141.84;81.48;19563.88;5092270;28;20262;-66
2022/09/07 04:17:29;;;;;;;30.20;27.20;;;16.60;99.90;;;-141.84;81.70;19517.13;5091858;28;20311;-66
2022/09/07 04:19:57;;;;;;;28.85;25.85;;;16.60;99.90;;;-141.84;81.75;19553.72;5091938;28;20663;-65
2022/09/07 04:22:25;;;;;;;28.40;25.38;;;16.60;99.90;;;-141.84;81.74;19537.44;5091986;28;20234;-66
2022/09/07 04:24:53;;;;;;;28.60;25.73;;;16.60;99.90;;;-141.84;81.26;19578.09;5091661;28;20206;-65
2022/09/07 04:27:23;;;;;;;29.42;26.63;;;16.60;99.90;;;-141.84;81.22;19574.03;5093176;28;20725;-67
2022/09/07 04:29:51;;;;;;;28.92;26.08;;;16.60;99.90;;;-141.84;81.21;19598.41;5091712;28;20307;-66
2022/09/07 04:32:19;;;;;;;29.17;26.27;;;16.70;99.90;;;-141.84;80.60;19614.66;5091732;28;20303;-66
2022/09/07 04:34:47;;;;;;;29.00;26.13;;;16.70;99.90;;;-141.84;80.32;19574.03;5091975;28;20224;-66
2022/09/07 04:37:15;;;;;;;27.50;24.70;;;16.70;99.90;;;-141.84;80.25;19588.25;5091596;28;20771;-65
2022/09/07 04:39:44;;;;;;;27.02;24.33;;;16.70;99.90;;;-141.84;80.09;19569.97;5091887;28;20204;-66
2022/09/07 04:42:12;;;;;;;30.27;27.27;;;16.70;99.90;;;-141.84;79.70;19626.88;5092097;28;20613;-65
2022/09/07 04:44:41;;;;;;;27.52;24.90;;;16.80;99.90;;;-141.84;79.59;19602.47;5091671;28;20303;-66
2022/09/07 04:47:09;;;;;;;28.25;25.55;;;16.90;99.90;;;-141.84;80.15;19598.41;5091738;28;20219;-66
2022/09/07 04:49:38;;;;;;;28.58;25.63;;;16.80;99.90;;;-141.84;80.08;19586.22;5091542;28;20311;-67
2022/09/07 04:52:06;;;;;;;28.73;25.83;;;16.80;99.90;;;-141.84;79.72;19598.41;5091759;28;20230;-66
2022/09/07 04:54:34;;;;;;;27.63;24.88;;;16.80;99.90;;;-141.84;79.45;19610.59;5092307;28;20235;-66
2022/09/07 04:57:02;;;;;;;27.85;25.15;;;16.80;99.90;;;-141.84;78.89;19630.94;5090968;28;20211;-66
2022/09/07 04:59:30;;;;;;;27.40;24.83;;;16.80;99.90;;;-141.84;78.83;19624.84;5091336;28;20227;-67
2022/09/07 05:02:00;;;;;;;27.88;25.17;;;16.80;99.90;;;-141.84;79.21;19576.06;5091436;28;20234;-66
2022/09/07 05:04:28;;;;;;;27.35;24.50;;;16.90;99.90;;;-141.84;79.72;19578.09;5091400;28;20232;-66
2022/09/07 05:06:56;;;;;;;27.13;24.52;;;16.80;99.90;;;-141.84;79.49;19622.81;5091173;28;20705;-66
2022/09/07 05:09:24;;;;;;;25.88;23.38;;;16.80;99.90;;;-141.84;79.79;19572.00;5092301;28;20218;-65
2022/09/07 05:11:53;;;;;;;26.92;24.23;;;16.80;99.90;;;-141.84;78.74;19626.88;5090960;28;20310;-67
2022/09/07 05:14:21;;;;;;;25.33;22.90;;;16.90;99.90;;;-141.84;78.43;19667.50;5090958;28;20230;-68
2022/09/07 05:16:49;;;;;;;26.88;24.38;;;17.00;99.90;;;-141.84;78.21;19691.91;5091067;28;20607;-66
2022/09/07 05:19:19;;;;;;;25.00;22.60;;;17.00;99.90;;;-141.84;78.18;19677.66;5090906;28;20216;-64
2022/09/07 05:21:47;;;;;;;25.23;22.73;;;17.10;99.90;;;-141.84;77.67;19718.31;5091279;28;20204;-69
2022/09/07 05:24:15;;;;;;;24.30;22.00;;;17.10;99.90;;;-141.84;77.58;19667.50;5091548;28;20207;-65
2022/09/07 05:26:43;;;;;;;24.65;22.15;;;17.10;99.90;;;-141.84;76.60;19665.47;5090946;28;20227;-66
2022/09/07 05:29:11;;;;;;;25.88;23.27;;;17.20;99.90;;;-141.84;77.32;19683.78;5090624;28;20996;-67
2022/09/07 05:32:00;;;;;;;23.92;21.63;;;17.20;99.90;;;-141.84;77.12;19673.59;5090736;28;20228;-67
2022/09/07 05:34:30;;;;;;;23.75;21.35;;;17.20;99.90;;;-141.84;77.64;19689.88;5090890;28;20254;-66
2022/09/07 05:37:00;;;;;;;24.95;22.55;;;17.20;99.90;;;-141.84;76.65;19738.66;5091139;28;20310;-65
2022/09/07 05:39:28;;;;;;;23.15;20.95;;;17.30;99.90;;;-141.84;76.22;19716.28;5091683;28;20235;-66
2022/09/07 05:41:57;;;;;;;23.90;21.70;;;17.40;99.90;;;-141.84;76.32;19730.50;5090784;28;20224;-68
2022/09/07 05:44:25;;;;;;;24.92;22.60;;;17.40;99.90;;;-141.84;75.77;19758.97;5090846;28;20238;-66
2022/09/07 05:47:09;;;;;;;24.20;21.95;;;17.60;99.90;;;-141.84;74.65;19809.78;5093698;28;20395;-66
2022/09/07 05:49:39;;;;;;;22.45;20.25;;;17.70;99.90;;;-141.84;74.76;19803.69;5091166;28;20226;-67
2022/09/07 05:52:07;;;;;;;23.30;20.98;;;17.70;99.90;;;-141.84;74.87;19791.47;5090956;28;20637;-64
2022/09/07 05:54:35;;;;;;;23.92;21.48;;;17.70;99.90;;;-141.84;74.59;19824.00;5091499;28;20204;-68
2022/09/07 05:57:05;;;;;;;22.42;20.35;;;17.80;99.90;;;-141.84;74.41;19826.03;5090550;28;20220;-67
2022/09/07 05:59:33;;;;;;;22.20;20.10;;;17.80;99.90;;;-141.84;73.89;19860.59;5090645;28;20482;-67
2022/09/07 06:02:02;;;;;;;24.50;22.10;;;17.90;99.90;;;-141.84;73.20;19919.53;5090932;28;20306;-67
2022/09/07 06:04:30;;;;;;;24.23;21.73;;;18.00;99.90;;;-141.84;72.68;19897.16;5090729;28;20763;-66
2022/09/07 06:06:59;;;;;;;22.42;20.33;;;18.20;99.90;;;-141.84;72.23;19960.16;5090861;28;20224;-68
2022/09/07 06:09:48;;;;;;;23.67;21.33;;;18.20;99.90;;;-141.84;71.25;20041.47;5092907;28;20661;-66
2022/09/07 06:12:36;;;;;;;22.65;20.55;;;18.30;99.90;;;-141.84;71.08;20059.75;5094885;28;20223;-67
2022/09/07 06:15:05;;;;;;;21.90;19.67;;;18.60;99.90;;;-141.84;69.45;20104.47;5094742;28;20211;-67
2022/09/07 06:17:33;;;;;;;20.77;18.70;;;18.70;99.90;;;-141.84;69.44;20147.16;5093911;28;20234;-67
2022/09/07 06:20:02;;;;;;;22.17;19.90;;;18.80;99.90;;;-141.84;68.88;20224.41;5094525;28;20597;-67
2022/09/07 06:22:31;;;;;;;21.42;19.38;;;19.00;99.90;;;-141.84;67.45;20291.47;5094053;28;20746;-67
2022/09/07 06:24:59;;;;;;;20.90;19.02;;;19.20;99.90;;;-141.84;66.79;20372.78;5094162;28;20311;-69
2022/09/07 06:27:28;;;;;;;19.73;17.88;;;19.30;99.90;;;-141.84;67.25;20378.88;5094917;28;20204;-66
2022/09/07 06:29:56;;;;;;;19.25;17.40;;;19.40;99.90;;;-141.84;67.10;20403.25;5093984;28;20304;-67
2022/09/07 06:32:25;;;;;;;19.30;17.50;;;19.50;99.90;;;-141.84;66.49;20431.72;5094386;28;20303;-65
2022/09/07 06:35:14;;;;;;;18.75;17.05;;;19.60;99.90;;;-141.84;65.70;20529.28;5094031;28;20727;-68
2022/09/07 06:37:44;;;;;;;19.52;17.73;;;19.80;99.90;;;-141.84;64.55;20567.91;5094037;28;20227;-67
2022/09/07 06:40:12;;;;;;;18.15;16.55;;;19.80;99.90;;;-141.84;65.47;20506.94;5093832;28;20220;-66
2022/09/07 06:42:41;;;;;;;17.27;15.68;;;19.80;99.90;;;-141.84;65.18;20545.56;5093525;28;20765;-67
2022/09/07 06:45:09;;;;;;;14.80;13.50;;;19.80;99.90;;;-141.84;65.98;20513.03;5094549;28;20206;-65
2022/09/07 06:47:39;;;;;;;17.35;15.75;;;19.90;99.90;;;-141.84;64.85;20616.69;5092524;28;20333;-65
2022/09/07 06:50:09;;;;;;;15.85;14.45;;;20.00;99.90;;;-141.84;64.17;20647.19;5093354;28;20650;-64
2022/09/07 06:52:38;;;;;;;18.08;16.35;;;20.00;99.90;;;-141.84;63.85;20689.88;5093865;28;20254;-66
2022/09/07 06:55:28;;;;;;;17.83;16.23;;;20.30;99.90;;;-141.84;63.67;20773.22;5093329;28;20703;-66
2022/09/07 06:57:56;;;;;;;16.95;15.30;;;20.30;99.90;;;-141.84;62.82;20785.44;5092922;28;20561;-67
2022/09/07 07:00:24;;;;;;;16.55;14.98;;;20.50;99.90;;;-141.84;62.48;20838.28;5093897;28;20206;-66
2022/09/07 07:02:52;;;;;;;16.05;14.48;;;20.60;99.90;;;-141.84;62.57;20840.31;5093378;28;20311;-69
2022/09/07 07:05:21;;;;;;;16.27;14.75;;;20.70;99.90;;;-141.84;62.13;20919.59;5093304;28;20220;-67
2022/09/07 07:07:49;;;;;;;14.70;13.40;;;20.90;99.90;;;-141.84;61.41;20988.72;5093876;28;20234;-68
2022/09/07 07:10:17;;;;;;;13.35;12.15;;;21.10;99.90;;;-141.84;60.53;21094.44;5086633;28;20243;-68
2022/09/07 07:12:55;;;;;;;14.35;12.98;;;21.30;99.90;;;-141.84;59.78;21151.34;5092622;28;20226;-70
2022/09/07 07:15:28;;;;;;;14.98;12.75;;;21.50;99.90;;;-141.84;59.32;21226.59;5093419;28;20694;-70
2022/09/07 07:17:56;;;;;;;13.88;12.48;;;21.70;99.90;;;-141.84;58.54;21287.56;5093096;28;20227;-71
2022/09/07 07:20:36;;;;;;;12.85;11.55;;;21.80;99.90;;;-141.84;58.75;21297.75;5092566;28;20223;-71
2022/09/07 07:23:05;;;;;;;12.90;11.60;;;21.90;99.90;;;-141.84;57.94;21417.69;5092965;28;20327;-71
2022/09/07 07:25:35;;;;;;;17.40;12.23;;;22.00;99.90;;;-141.84;57.57;21446.16;5092897;28;20230;-69
2022/09/07 07:28:05;;;;;;;12.38;10.98;;;22.20;99.90;;;-141.84;57.09;21474.63;5092762;28;20240;-71
2022/09/07 07:30:56;;;;;;;11.02;10.05;;;22.40;99.90;;;-141.84;56.64;21578.31;5071683;28;20205;-67
2022/09/07 07:33:24;;;;;;;11.85;10.52;;;22.60;99.90;;;-141.84;55.77;21600.69;5091591;28;20275;-66
2022/09/07 07:35:53;;;;;;;10.20;9.30;;;22.80;99.90;;;-141.84;55.23;21667.78;5092470;28;20718;-65
2022/09/07 07:38:21;;;;;;;12.35;10.30;;;23.00;99.90;;;-141.84;54.53;21749.13;5092391;28;20231;-65
2022/09/07 07:41:10;;;;;;;10.05;9.10;;;23.20;99.90;;;-141.84;54.23;21787.75;5092528;28;20227;-64
2022/09/07 07:44:00;;;;;;;9.32;8.43;;;23.40;99.90;;;-141.84;53.65;21838.59;5092531;28;20224;-66
2022/09/07 07:46:29;;;;;;;8.73;8.02;;;23.50;99.90;;;-141.84;53.96;21834.53;5092351;28;20360;-66
2022/09/07 07:48:58;;;;;;;8.10;7.30;;;23.60;99.90;;;-141.84;52.80;21915.88;5092229;28;20239;-68
2022/09/07 07:51:26;;;;;;;8.38;7.57;;;23.80;99.90;;;-141.84;52.20;21956.53;5092893;28;20204;-66
2022/09/07 07:53:54;;;;;;;7.15;6.55;;;23.90;99.90;;;-141.84;51.65;22015.50;5092413;28;20232;-66
2022/09/07 07:56:23;;;;;;;7.95;6.75;;;24.20;99.90;;;-141.84;50.92;22037.88;5092204;28;20253;-65
2022/09/07 07:58:51;;;;;;;7.93;7.30;;;24.20;99.90;;;-141.84;50.44;22082.63;5091873;28;20232;-67
2022/09/07 08:01:21;;;;;;;7.63;6.93;;;24.30;99.90;;;-141.84;50.61;22127.34;5092378;28;20224;-76
2022/09/07 08:03:49;;;;;;;7.60;6.90;;;24.40;99.90;;;-141.84;50.66;22143.63;5092487;28;20257;-78
2022/09/07 08:06:20;;;;;;;7.60;6.90;;;24.50;99.90;;;-141.84;50.47;22135.47;5092747;28;20667;-80
2022/09/07 08:08:48;;;;;;;7.80;7.10;;;24.40;99.90;;;-141.84;50.87;22086.69;5092186;28;20247;-82
2022/09/07 08:11:19;;;;;;;7.18;6.57;;;24.40;99.90;;;-141.84;50.78;22127.34;5091967;28;20293;-70
2022/09/07 08:13:49;;;;;;;7.70;7.00;;;24.40;99.90;;;-141.84;50.08;22170.06;5091598;28;20593;-67
2022/09/07 08:16:20;;;;;;;7.65;6.97;;;24.50;99.90;;;-141.84;50.71;22170.06;5091919;28;20228;-64
2022/09/07 08:18:48;;;;;;;7.25;6.65;;;24.40;99.90;;;-141.84;50.77;22115.16;5092002;28;20660;-65
2022/09/07 08:21:17;;;;;;;7.15;6.55;;;24.40;99.90;;;-141.84;51.60;22078.53;5092182;28;20200;-65
2022/09/07 08:23:45;;;;;;;6.72;6.22;;;24.30;99.90;;;-141.84;51.83;22039.91;5091547;28;20741;-65
2022/09/07 08:26:13;;;;;;;7.68;6.97;;;24.20;99.90;;;-141.84;52.29;21974.84;5091655;28;20224;-67
2022/09/07 08:28:44;;;;;;;8.10;7.40;;;24.00;99.90;;;-141.84;53.27;21954.50;5091544;28;20600;-65
2022/09/07 08:31:15;;;;;;;7.38;6.78;;;23.90;99.90;;;-141.84;53.35;21867.06;5090662;28;20707;-67
2022/09/07 08:33:45;;;;;;;7.43;6.80;;;23.80;99.90;;;-141.84;54.20;21858.94;5091992;28;20193;-65
2022/09/07 08:36:16;;;;;;;7.93;6.97;;;23.60;99.90;;;-141.84;54.20;21820.28;5092176;28;20210;-65
2022/09/07 08:38:44;;;;;;;7.30;6.60;;;23.40;99.90;;;-141.84;54.35;21836.56;5091529;28;20235;-68
2022/09/07 08:41:51;;;;;;;7.97;7.35;;;23.40;99.90;;;-141.84;54.38;21808.09;5091309;28;20235;-64
2022/09/07 08:44:25;;;;;;;7.55;6.82;;;23.30;99.90;;;-141.84;54.43;21810.13;5091160;28;20234;-65
2022/09/07 08:47:00;;;;;;;7.10;6.40;;;23.30;99.90;;;-141.84;54.20;21865.03;5091454;28;20250;-64
2022/09/07 08:49:42;;;;;;;7.30;6.60;;;23.40;99.90;;;-141.84;53.99;21887.41;5091405;28;20273;-66
2022/09/07 08:52:16;;;;;;;7.35;6.75;;;23.60;99.90;;;-141.84;53.89;21930.09;5091570;28;20219;-66
2022/09/07 08:54:53;;;;;;;6.78;6.18;;;23.60;99.90;;;-141.84;53.51;21960.59;5091518;28;20192;-65
2022/09/07 08:57:33;;;;;;;6.72;6.10;;;23.60;99.90;;;-141.84;53.17;21978.91;5091013;28;20579;-65
2022/09/07 09:00:07;;;;;;;7.20;6.60;;;23.70;99.90;;;-141.84;53.03;21970.78;5090903;28;20227;-67
2022/09/07 09:02:36;;;;;;;7.05;6.45;;;23.90;99.90;;;-141.84;52.74;22021.59;5091021;28;20229;-66
2022/09/07 09:05:27;;;;;;;6.75;6.25;;;23.90;99.90;;;-141.84;51.22;22074.47;5090807;28;20298;-67
2022/09/07 09:08:20;;;;;;;7.32;6.72;;;24.20;99.90;;;-141.84;51.28;22117.19;5091103;28;20223;-65
2022/09/07 09:11:01;;;;;;;6.60;6.00;;;24.20;99.90;;;-141.84;52.28;22039.91;5070675;28;20224;-67
2022/09/07 09:13:51;;;;;;;7.50;6.72;;;24.20;99.90;;;-141.84;51.42;22096.84;5086363;28;20640;-68
2022/09/07 09:16:33;;;;;;;8.90;6.72;;;24.20;99.90;;;-141.84;51.66;22062.28;5091134;28;20560;-67
2022/09/07 09:19:22;;;;;;;6.97;6.28;;;24.10;99.90;;;-141.84;52.28;21964.66;5091094;28;20321;-67
2022/09/07 09:22:07;;;;;;;7.30;6.57;;;24.00;99.90;;;-141.84;51.41;22094.81;5091306;28;20180;-66
2022/09/07 09:24:41;;;;;;;8.85;7.03;;;24.00;99.90;;;-141.84;51.02;22174.13;5091457;28;20208;-68
2022/09/07 09:27:09;;;;;;;7.00;6.18;;;24.30;99.90;;;-141.84;50.79;22265.63;5091047;28;20844;-68
2022/09/07 09:29:37;;;;;;;8.02;6.32;;;24.60;99.90;;;-141.84;50.59;22218.84;5090621;28;20729;-65
2022/09/07 09:32:32;;;;;;;7.63;6.32;;;24.60;99.90;;;-141.84;49.93;22243.25;5090641;28;20228;-63
2022/09/07 09:35:11;;;;;;;8.73;6.63;;;24.70;99.90;;;-141.84;50.35;22257.50;5090798;28;20227;-68
2022/09/07 09:37:43;;;;;;;8.15;6.60;;;24.80;99.90;;;-141.84;49.37;22310.38;5090737;28;20625;-66
2022/09/07 09:40:25;;;;;;;8.20;6.80;;;24.90;99.90;;;-141.84;49.87;22318.50;5090887;28;20223;-67
2022/09/07 09:43:06;;;;;;;7.70;6.50;;;25.00;99.90;;;-141.84;50.26;22294.09;5091866;28;20292;-67
2022/09/07 09:45:42;;;;;;;9.05;7.20;;;24.90;99.90;;;-141.84;49.89;22281.91;5095219;28;20192;-66
2022/09/07 09:48:34;;;;;;;7.32;6.57;;;24.70;99.90;;;-141.84;49.68;22265.63;5094561;28;20725;-64
2022/09/07 09:51:07;;;;;;;7.40;6.70;;;24.80;99.90;;;-141.84;49.96;22296.13;5094705;28;20239;-68
2022/09/07 09:54:05;;;;;;;8.48;7.13;;;24.90;99.90;;;-141.84;49.62;22249.38;5094212;28;20597;-64
2022/09/07 09:56:40;;;;;;;10.93;9.13;;;24.90;99.90;;;-141.84;50.26;22285.97;5094322;28;20231;-67
2022/09/07 09:59:23;;;;;;;8.40;7.57;;;24.80;99.90;;;-141.84;49.62;22298.16;5094182;28;20223;-66
2022/09/07 10:02:28;;;;;;;9.90;7.97;;;25.00;99.90;;;-141.84;49.76;22355.13;5094683;28;20235;-63
2022/09/07 10:05:37;;;;;;;10.32;8.27;;;25.20;99.90;;;-141.84;48.76;22491.38;5094292;28;20643;-67
2022/09/07 10:08:18;;;;;;;8.85;7.63;;;25.40;99.90;;;-141.84;48.08;22534.09;5094449;28;20227;-67
2022/09/07 10:11:01;;;;;;;11.57;7.68;;;25.70;99.90;;;-141.84;48.41;22505.59;5074414;28;20232;-68
2022/09/07 10:13:33;;;;;;;8.40;7.60;;;25.70;99.90;;;-141.84;48.33;22550.34;5073993;28;20285;-66
2022/09/07 10:16:06;;;;;;;8.35;7.55;;;25.80;99.90;;;-141.84;48.32;22511.72;5074448;28;20224;-68
2022/09/07 10:18:38;;;;;;;8.27;7.00;;;25.80;99.90;;;-141.84;48.76;22424.25;5075299;28;20189;-67
2022/09/07 10:21:22;;;;;;;7.88;7.07;;;25.70;99.90;;;-141.84;48.63;22408.00;5074805;28;20233;-67
2022/09/07 10:23:57;;;;;;;7.95;7.10;;;25.60;99.90;;;-141.84;49.14;22381.56;5074248;28;20232;-68
2022/09/07 10:26:31;;;;;;;9.05;6.40;;;25.50;99.90;;;-141.84;48.84;22403.94;5074340;28;20235;-68